createdAt,value
2024-05-09T00:00:36.391Z,16.57
2024-05-09T00:03:07.919Z,16.62
2024-05-09T00:05:35.639Z,16.60
2024-05-09T00:08:02.601Z,16.59
2024-05-09T00:10:35.822Z,16.59
2024-05-09T00:13:05.247Z,16.49
2024-05-09T00:15:33.452Z,16.43
2024-05-09T00:18:00.682Z,16.36
2024-05-09T00:20:35.971Z,16.29
2024-05-09T00:23:07.503Z,16.40
2024-05-09T00:25:34.871Z,16.39
2024-05-09T00:28:01.827Z,16.35
2024-05-09T00:30:34.253Z,16.36
2024-05-09T00:33:04.535Z,16.39
2024-05-09T00:35:32.166Z,16.41
2024-05-09T00:37:58.959Z,16.43
2024-05-09T00:40:35.532Z,16.46
2024-05-09T00:43:06.966Z,16.49
2024-05-09T00:45:35.047Z,16.50
2024-05-09T00:48:06.670Z,16.47
2024-05-09T00:50:37.455Z,16.45
2024-05-09T00:53:06.409Z,16.41
2024-05-09T00:55:35.260Z,16.42
2024-05-09T00:58:02.910Z,16.40
2024-05-09T01:00:37.404Z,16.40
2024-05-09T01:03:06.898Z,16.37
2024-05-09T01:05:34.907Z,16.37
2024-05-09T01:08:03.170Z,16.29
2024-05-09T01:10:34.508Z,16.26
2024-05-09T01:13:06.288Z,16.26
2024-05-09T01:15:34.329Z,16.25
2024-05-09T01:18:04.191Z,16.20
2024-05-09T01:20:40.014Z,16.13
2024-05-09T01:23:10.305Z,16.14
2024-05-09T01:25:37.323Z,16.20
2024-05-09T01:28:04.284Z,16.24
2024-05-09T01:30:35.387Z,16.20
2024-05-09T01:33:06.121Z,16.20
2024-05-09T01:35:34.341Z,16.01
2024-05-09T01:38:01.115Z,16.25
2024-05-09T01:40:36.435Z,16.25
2024-05-09T01:43:06.056Z,16.25
2024-05-09T01:45:32.849Z,16.31
2024-05-09T01:47:59.772Z,16.32
2024-05-09T01:50:37.361Z,16.35
2024-05-09T01:53:07.981Z,16.22
2024-05-09T01:55:34.755Z,16.25
2024-05-09T01:58:01.441Z,16.26
2024-05-09T02:00:37.946Z,16.26
2024-05-09T02:03:14.032Z,16.27
2024-05-09T02:05:44.495Z,16.19
2024-05-09T02:08:16.082Z,16.21
2024-05-09T02:10:47.586Z,16.20
2024-05-09T02:13:15.357Z,16.17
2024-05-09T02:15:42.137Z,16.18
2024-05-09T02:18:09.872Z,16.18
2024-05-09T02:20:39.416Z,16.16
2024-05-09T02:23:06.954Z,16.13
2024-05-09T02:25:34.130Z,16.20
2024-05-09T02:28:01.286Z,16.23
2024-05-09T02:30:38.601Z,16.19
2024-05-09T02:33:09.691Z,16.23
2024-05-09T02:35:37.960Z,16.21
2024-05-09T02:38:04.888Z,16.23
2024-05-09T02:40:37.628Z,16.24
2024-05-09T02:43:07.248Z,16.29
2024-05-09T02:45:34.264Z,16.33
2024-05-09T02:48:01.885Z,16.30
2024-05-09T02:50:37.021Z,16.31
2024-05-09T02:53:07.336Z,16.35
2024-05-09T02:55:34.317Z,16.34
2024-05-09T02:58:01.037Z,16.38
2024-05-09T03:00:36.643Z,16.45
2024-05-09T03:03:08.630Z,16.44
2024-05-09T03:05:36.944Z,16.31
2024-05-09T03:08:04.121Z,16.44
2024-05-09T03:10:35.971Z,16.40
2024-05-09T03:13:07.360Z,16.36
2024-05-09T03:15:34.103Z,16.31
2024-05-09T03:18:01.335Z,16.23
2024-05-09T03:20:33.592Z,16.22
2024-05-09T03:23:02.535Z,16.23
2024-05-09T03:25:29.318Z,16.26
2024-05-09T03:27:56.011Z,16.30
2024-05-09T03:30:35.819Z,16.29
2024-05-09T03:33:11.015Z,16.31
2024-05-09T03:35:38.159Z,16.24
2024-05-09T03:38:05.028Z,16.32
2024-05-09T03:40:31.674Z,16.32
2024-05-09T03:42:58.877Z,16.28
2024-05-09T03:45:25.618Z,16.34
2024-05-09T03:47:52.849Z,16.36
2024-05-09T03:50:26.486Z,16.38
2024-05-09T03:53:00.654Z,16.34
2024-05-09T03:55:27.542Z,16.36
2024-05-09T03:57:54.231Z,16.38
2024-05-09T04:00:30.479Z,16.38
2024-05-09T04:03:02.875Z,16.45
2024-05-09T04:05:31.148Z,16.50
2024-05-09T04:07:58.200Z,16.51
2024-05-09T04:10:32.388Z,16.57
2024-05-09T04:13:01.031Z,16.61
2024-05-09T04:15:27.762Z,16.60
2024-05-09T04:17:54.646Z,16.59
2024-05-09T04:20:32.569Z,16.63
2024-05-09T04:23:12.343Z,16.64
2024-05-09T04:25:46.990Z,16.60
2024-05-09T04:28:14.212Z,16.64
2024-05-09T04:30:41.995Z,16.63
2024-05-09T04:33:12.291Z,16.64
2024-05-09T04:35:44.688Z,16.67
2024-05-09T04:38:15.597Z,16.68
2024-05-09T04:40:42.770Z,16.68
2024-05-09T04:43:18.786Z,16.72
2024-05-09T04:45:45.895Z,16.76
2024-05-09T04:48:13.279Z,16.77
2024-05-09T04:50:40.382Z,16.82
2024-05-09T04:53:10.396Z,16.88
2024-05-09T04:55:38.279Z,16.89
2024-05-09T04:58:08.304Z,17.00
2024-05-09T05:00:37.413Z,17.02
2024-05-09T05:03:08.432Z,17.05
2024-05-09T05:05:40.300Z,17.11
2024-05-09T05:08:17.512Z,17.15
2024-05-09T05:10:45.487Z,17.18
2024-05-09T05:13:25.241Z,17.22
2024-05-09T05:16:00.787Z,17.24
2024-05-09T05:18:29.023Z,17.25
2024-05-09T05:20:56.732Z,17.32
2024-05-09T05:23:24.422Z,17.39
2024-05-09T05:25:55.527Z,17.42
2024-05-09T05:28:22.616Z,17.43
2024-05-09T05:30:49.368Z,17.48
2024-05-09T05:33:18.771Z,17.54
2024-05-09T05:35:46.120Z,17.60
2024-05-09T05:38:12.824Z,17.72
2024-05-09T05:40:40.774Z,17.75
2024-05-09T05:43:09.939Z,17.80
2024-05-09T05:45:37.070Z,17.82
2024-05-09T05:48:05.710Z,17.84
2024-05-09T05:50:36.486Z,17.90
2024-05-09T05:53:09.170Z,17.89
2024-05-09T05:55:37.787Z,17.94
2024-05-09T05:58:04.764Z,17.88
2024-05-09T06:00:38.273Z,17.89
2024-05-09T06:03:11.047Z,17.96
2024-05-09T06:05:40.371Z,17.97
2024-05-09T06:08:07.903Z,18.01
2024-05-09T06:10:38.734Z,18.06
2024-05-09T06:13:12.788Z,18.15
2024-05-09T06:15:41.104Z,18.21
2024-05-09T06:18:10.159Z,18.24
2024-05-09T06:20:39.772Z,18.32
2024-05-09T06:23:07.363Z,18.40
2024-05-09T06:25:35.294Z,18.45
2024-05-09T06:28:02.244Z,18.47
2024-05-09T06:30:37.439Z,18.58
2024-05-09T06:33:09.086Z,18.68
2024-05-09T06:35:36.668Z,18.77
2024-05-09T06:38:04.341Z,18.85
2024-05-09T06:40:37.252Z,18.95
2024-05-09T06:43:11.468Z,18.98
2024-05-09T06:45:39.908Z,19.00
2024-05-09T06:48:07.562Z,19.10
2024-05-09T06:50:37.928Z,19.10
2024-05-09T06:53:06.618Z,19.11
2024-05-09T06:55:33.727Z,19.15
2024-05-09T06:58:00.472Z,19.14
2024-05-09T07:00:35.086Z,19.15
2024-05-09T07:03:11.003Z,19.24
2024-05-09T07:05:38.779Z,19.29
2024-05-09T07:08:06.692Z,19.29
2024-05-09T07:10:35.761Z,19.26
2024-05-09T07:13:03.219Z,19.25
2024-05-09T07:15:29.816Z,19.32
2024-05-09T07:17:56.663Z,19.35
2024-05-09T07:20:32.073Z,19.39
2024-05-09T07:23:02.838Z,19.47
2024-05-09T07:25:29.879Z,19.52
2024-05-09T07:27:56.707Z,19.55
2024-05-09T07:30:27.945Z,19.65
2024-05-09T07:33:00.415Z,19.69
2024-05-09T07:35:27.508Z,19.80
2024-05-09T07:37:54.515Z,19.85
2024-05-09T07:40:31.803Z,19.96
2024-05-09T07:43:06.701Z,20.13
2024-05-09T07:52:23.255Z,20.50
2024-05-09T07:53:38.758Z,20.71
2024-05-09T07:56:09.098Z,20.80
2024-05-09T07:58:36.579Z,20.94
2024-05-09T08:01:03.444Z,21.04
2024-05-09T08:03:30.539Z,21.16
2024-05-09T08:05:57.257Z,21.14
2024-05-09T08:08:23.917Z,21.16
2024-05-09T08:10:51.232Z,21.11
2024-05-09T08:13:17.906Z,21.07
2024-05-09T08:15:44.826Z,21.11
2024-05-09T08:18:11.797Z,21.15
2024-05-09T08:20:39.173Z,21.22
2024-05-09T08:23:06.350Z,21.27
2024-05-09T08:25:33.189Z,21.37
2024-05-09T08:27:59.940Z,21.50
2024-05-09T08:30:33.420Z,21.59
2024-05-09T08:33:04.495Z,21.68
2024-05-09T08:35:31.770Z,21.75
2024-05-09T08:37:58.600Z,21.74
2024-05-09T08:40:32.935Z,21.83
2024-05-09T08:43:03.056Z,21.89
2024-05-09T08:45:30.892Z,21.91
2024-05-09T08:47:59.636Z,22.03
2024-05-09T08:50:32.475Z,22.15
2024-05-09T09:00:04.846Z,22.76
2024-05-09T09:02:33.284Z,22.98
2024-05-09T09:05:11.288Z,23.19
2024-05-09T09:07:40.945Z,23.40
2024-05-09T09:10:08.831Z,23.48
2024-05-09T09:12:35.807Z,23.55
2024-05-09T09:15:02.462Z,23.72
2024-05-09T09:17:29.138Z,23.92
2024-05-09T09:19:55.879Z,24.09
2024-05-09T09:22:22.522Z,24.29
2024-05-09T09:24:49.211Z,24.42
2024-05-09T09:27:16.206Z,24.63
2024-05-09T09:29:42.922Z,24.69
2024-05-09T09:32:11.408Z,24.89
2024-05-09T09:34:38.027Z,24.96
2024-05-09T09:37:05.581Z,25.21
2024-05-09T09:39:33.751Z,25.29
2024-05-09T09:42:01.528Z,25.47
2024-05-09T09:44:29.425Z,25.64
2024-05-09T09:46:57.618Z,25.83
2024-05-09T09:49:24.556Z,26.08
2024-05-09T09:51:51.860Z,26.14
2024-05-09T09:54:19.158Z,26.29
2024-05-09T09:56:48.541Z,26.30
2024-05-09T09:59:15.856Z,26.40
2024-05-09T10:01:46.054Z,26.61
2024-05-09T10:04:18.568Z,26.64
2024-05-09T10:06:57.010Z,26.93
2024-05-09T10:09:24.112Z,27.02
2024-05-09T10:11:54.442Z,27.05
2024-05-09T10:14:24.608Z,27.21
2024-05-09T10:16:51.218Z,27.24
2024-05-09T10:19:27.970Z,27.45
2024-05-09T10:22:04.491Z,27.53
2024-05-09T10:24:51.287Z,27.47
2024-05-09T10:27:28.733Z,27.58
2024-05-09T10:29:56.882Z,27.75
2024-05-09T10:32:24.525Z,27.89
2024-05-09T10:35:07.781Z,27.94
2024-05-09T10:37:35.396Z,27.91
2024-05-09T10:40:05.495Z,27.92
2024-05-09T10:42:34.136Z,28.04
2024-05-09T10:45:02.081Z,28.14
2024-05-09T10:47:30.029Z,28.26
2024-05-09T10:49:57.256Z,28.26
2024-05-09T10:52:24.509Z,28.35
2024-05-09T10:54:52.334Z,28.38
2024-05-09T10:57:19.018Z,28.35
2024-05-09T10:59:46.295Z,28.45
2024-05-09T11:02:13.888Z,28.57
2024-05-09T11:04:41.537Z,28.75
2024-05-09T11:07:16.222Z,28.84
2024-05-09T11:09:43.904Z,28.84
2024-05-09T11:12:10.969Z,28.88
2024-05-09T11:14:37.742Z,29.12
2024-05-09T11:17:06.566Z,29.21
2024-05-09T11:19:38.587Z,29.16
2024-05-09T11:22:08.576Z,29.14
2024-05-09T11:24:35.556Z,29.28
2024-05-09T11:27:04.334Z,29.34
2024-05-09T11:29:39.371Z,29.39
2024-05-09T11:32:11.760Z,29.23
2024-05-09T11:34:38.553Z,29.36
2024-05-09T11:37:05.212Z,29.60
2024-05-09T11:39:32.069Z,29.73
2024-05-09T11:41:58.769Z,29.66
2024-05-09T11:44:26.515Z,29.60
2024-05-09T11:46:54.125Z,29.66
2024-05-09T11:49:23.152Z,29.80
2024-05-09T11:51:51.170Z,29.88
2024-05-09T11:54:17.971Z,29.88
2024-05-09T11:56:44.690Z,30.12
2024-05-09T11:59:11.559Z,30.29
2024-05-09T12:01:38.241Z,30.27
2024-05-09T12:04:05.475Z,30.26
2024-05-09T12:06:32.646Z,30.26
2024-05-09T12:08:59.315Z,30.25
2024-05-09T12:11:25.938Z,30.38
2024-05-09T12:13:52.545Z,30.43
2024-05-09T12:16:19.720Z,30.49
2024-05-09T12:18:46.568Z,30.52
2024-05-09T12:21:17.046Z,30.61
2024-05-09T12:23:43.663Z,30.51
2024-05-09T12:26:11.034Z,30.40
2024-05-09T12:28:37.912Z,30.27
2024-05-09T12:31:04.797Z,30.23
2024-05-09T12:33:31.458Z,30.18
2024-05-09T12:35:58.206Z,30.08
2024-05-09T12:38:24.975Z,29.95
2024-05-09T12:40:51.751Z,29.97
2024-05-09T12:43:18.563Z,29.90
2024-05-09T12:45:45.449Z,29.84
2024-05-09T12:48:13.082Z,29.84
2024-05-09T12:50:40.731Z,29.34
2024-05-09T12:53:07.632Z,29.28
2024-05-09T12:55:41.281Z,29.26
2024-05-09T12:58:16.398Z,29.18
2024-05-09T13:00:43.828Z,29.22
2024-05-09T13:03:10.918Z,29.23
2024-05-09T13:05:37.662Z,29.18
2024-05-09T13:08:04.829Z,29.16
2024-05-09T13:10:33.136Z,29.16
2024-05-09T13:13:01.783Z,29.07
2024-05-09T13:15:31.167Z,29.00
2024-05-09T13:18:01.614Z,28.98
2024-05-09T13:20:33.628Z,28.80
2024-05-09T13:23:04.053Z,28.77
2024-05-09T13:25:30.874Z,28.62
2024-05-09T13:27:58.308Z,28.62
2024-05-09T13:30:34.067Z,28.59
2024-05-09T13:33:06.864Z,28.60
2024-05-09T13:35:35.494Z,28.47
2024-05-09T13:38:03.276Z,28.41
2024-05-09T13:40:34.295Z,28.31
2024-05-09T13:43:04.015Z,28.29
2024-05-09T13:45:31.113Z,28.26
2024-05-09T13:47:58.247Z,28.22
2024-05-09T13:50:33.173Z,28.16
2024-05-09T13:53:02.725Z,28.11
2024-05-09T13:55:29.547Z,28.07
2024-05-09T13:57:56.751Z,28.08
2024-05-09T14:00:37.844Z,28.11
2024-05-09T14:03:10.704Z,28.09
2024-05-09T14:05:37.732Z,28.08
2024-05-09T14:08:04.812Z,28.04
2024-05-09T14:10:32.437Z,27.98
2024-05-09T14:13:00.430Z,27.95
2024-05-09T14:15:27.268Z,27.90
2024-05-09T14:17:54.998Z,27.84
2024-05-09T14:22:51.206Z,27.83
2024-05-09T14:25:17.977Z,27.55
2024-05-09T14:27:44.683Z,27.70
2024-05-09T14:30:18.359Z,27.73
2024-05-09T14:32:52.950Z,27.70
2024-05-09T14:35:19.798Z,27.65
2024-05-09T14:37:46.513Z,27.57
2024-05-09T14:40:30.349Z,27.48
2024-05-09T14:43:03.203Z,27.45
2024-05-09T14:45:30.187Z,27.43
2024-05-09T14:47:57.220Z,27.34
2024-05-09T14:50:32.531Z,27.37
2024-05-09T14:53:03.640Z,27.28
2024-05-09T14:55:30.575Z,27.20
2024-05-09T14:57:57.329Z,27.14
2024-05-09T15:00:28.935Z,27.12
2024-05-09T15:03:00.508Z,27.11
2024-05-09T15:05:27.481Z,27.02
2024-05-09T15:07:54.342Z,26.95
2024-05-09T15:10:27.360Z,26.88
2024-05-09T15:13:00.947Z,26.87
2024-05-09T15:15:27.745Z,26.75
2024-05-09T15:17:55.239Z,26.78
2024-05-09T15:20:30.784Z,26.79
2024-05-09T15:23:01.934Z,26.79
2024-05-09T15:25:28.736Z,26.69
2024-05-09T15:27:55.625Z,26.68
2024-05-09T15:32:52.148Z,26.70
2024-05-09T15:35:18.929Z,26.69
2024-05-09T15:37:48.239Z,26.65
2024-05-09T15:40:21.592Z,26.55
2024-05-09T15:42:53.416Z,26.51
2024-05-09T15:45:20.052Z,26.47
2024-05-09T15:47:46.902Z,26.48
2024-05-09T15:50:20.471Z,26.47
2024-05-09T15:52:55.387Z,26.45
2024-05-09T15:55:22.086Z,26.42
2024-05-09T15:57:48.929Z,26.40
2024-05-09T16:00:24.794Z,26.37
2024-05-09T16:03:00.025Z,26.37
2024-05-09T16:05:27.061Z,26.33
2024-05-09T16:07:54.049Z,26.22
2024-05-09T16:10:25.924Z,26.25
2024-05-09T16:12:58.667Z,26.15
2024-05-09T16:15:25.310Z,26.08
2024-05-09T16:17:52.024Z,26.00
2024-05-09T16:20:29.599Z,25.95
2024-05-09T16:23:05.044Z,25.88
2024-05-09T16:25:31.708Z,25.82
2024-05-09T16:27:58.462Z,25.80
2024-05-09T16:30:31.960Z,25.74
2024-05-09T16:33:02.422Z,25.70
2024-05-09T16:35:29.461Z,25.63
2024-05-09T16:37:56.198Z,25.66
2024-05-09T16:40:30.333Z,25.53
2024-05-09T16:43:05.467Z,25.43
2024-05-09T16:45:33.253Z,25.50
2024-05-09T16:48:01.554Z,25.41
2024-05-09T16:50:32.762Z,25.40
2024-05-09T16:53:01.895Z,25.38
2024-05-09T16:55:28.787Z,25.33
2024-05-09T16:57:56.787Z,25.28
2024-05-09T17:00:34.948Z,25.19
2024-05-09T17:03:07.771Z,25.13
2024-05-09T17:05:35.719Z,25.03
2024-05-09T17:08:03.099Z,25.09
2024-05-09T17:10:33.576Z,25.05
2024-05-09T17:13:03.250Z,25.01
2024-05-09T17:15:30.988Z,24.92
2024-05-09T17:17:58.178Z,24.78
2024-05-09T17:20:31.868Z,24.66
2024-05-09T17:23:02.518Z,24.44
2024-05-09T17:25:29.408Z,24.39
2024-05-09T17:27:56.680Z,24.26
2024-05-09T17:30:29.411Z,24.20
2024-05-09T17:33:02.569Z,24.03
2024-05-09T17:35:29.399Z,23.88
2024-05-09T17:37:56.615Z,23.69
2024-05-09T17:42:53.076Z,23.46
2024-05-09T17:45:20.623Z,23.34
2024-05-09T17:47:47.721Z,23.19
2024-05-09T17:50:21.008Z,23.00
2024-05-09T17:52:53.795Z,22.81
2024-05-09T17:55:21.147Z,22.65
2024-05-09T17:57:48.110Z,22.57
2024-05-09T18:00:24.058Z,22.38
2024-05-09T18:02:56.376Z,22.09
2024-05-09T18:05:23.439Z,21.84
2024-05-09T18:07:50.183Z,21.54
2024-05-09T18:10:25.179Z,21.53
2024-05-09T18:12:56.568Z,21.36
2024-05-09T18:15:23.410Z,21.07
2024-05-09T18:17:51.683Z,20.89
2024-05-09T18:20:28.587Z,20.72
2024-05-09T18:23:04.447Z,20.49
2024-05-09T18:25:31.046Z,20.31
2024-05-09T18:27:58.244Z,20.17
2024-05-09T18:30:32.079Z,20.07
2024-05-09T18:33:01.643Z,19.89
2024-05-09T18:35:28.446Z,19.73
2024-05-09T18:37:55.065Z,19.57
2024-05-09T18:40:31.142Z,19.40
2024-05-09T18:43:02.496Z,19.29
2024-05-09T18:45:29.294Z,19.13
2024-05-09T18:47:56.368Z,18.97
2024-05-09T18:50:31.991Z,18.89
2024-05-09T18:53:03.584Z,18.54
2024-05-09T18:55:30.274Z,18.42
2024-05-09T18:57:57.252Z,18.37
2024-05-09T19:00:33.241Z,18.28
2024-05-09T19:03:06.447Z,18.18
2024-05-09T19:05:35.979Z,18.01
2024-05-09T19:08:03.470Z,17.88
2024-05-09T19:10:34.353Z,17.80
2024-05-09T19:13:06.707Z,17.68
2024-05-09T19:15:37.603Z,17.70
2024-05-09T19:18:04.832Z,17.62
2024-05-09T19:20:34.409Z,17.54
2024-05-09T19:23:02.854Z,17.47
2024-05-09T19:25:29.756Z,17.43
2024-05-09T19:27:56.594Z,17.38
2024-05-09T19:30:30.477Z,17.29
2024-05-09T19:33:05.974Z,17.06
2024-05-09T19:35:33.075Z,17.06
2024-05-09T19:38:00.016Z,16.98
2024-05-09T19:40:31.539Z,16.99
2024-05-09T19:43:01.731Z,16.91
2024-05-09T19:45:29.167Z,16.78
2024-05-09T19:47:56.793Z,16.74
2024-05-09T19:50:32.216Z,16.72
2024-05-09T19:53:07.479Z,16.66
2024-05-09T19:55:34.995Z,16.68
2024-05-09T19:58:07.015Z,16.68
2024-05-09T20:00:37.119Z,16.65
2024-05-09T20:03:06.436Z,16.59
2024-05-09T20:05:33.702Z,16.57
2024-05-09T20:08:00.652Z,16.55
2024-05-09T20:10:32.136Z,16.57
2024-05-09T20:13:01.053Z,16.48
2024-05-09T20:15:27.742Z,16.40
2024-05-09T20:17:54.816Z,16.31
2024-05-09T20:20:32.179Z,16.39
2024-05-09T20:23:04.035Z,16.40
2024-05-09T20:25:30.715Z,16.26
2024-05-09T20:27:57.420Z,16.23
2024-05-09T20:30:31.252Z,16.04
2024-05-09T20:33:00.407Z,15.90
2024-05-09T20:35:27.359Z,15.84
2024-05-09T20:37:53.964Z,15.79
2024-05-09T20:40:28.426Z,15.78
2024-05-09T20:42:59.358Z,15.78
2024-05-09T20:45:26.073Z,15.67
2024-05-09T20:47:52.766Z,15.55
2024-05-09T20:50:28.282Z,15.49
2024-05-09T20:53:03.094Z,15.40
2024-05-09T20:55:30.288Z,15.27
2024-05-09T20:57:57.442Z,15.34
2024-05-09T21:00:33.735Z,15.31
2024-05-09T21:03:06.491Z,15.34
2024-05-09T21:05:34.387Z,15.32
2024-05-09T21:08:01.624Z,15.32
2024-05-09T21:10:32.688Z,15.23
2024-05-09T21:13:01.047Z,15.13
2024-05-09T21:15:27.894Z,15.12
2024-05-09T21:17:54.558Z,15.04
2024-05-09T21:20:28.248Z,15.00
2024-05-09T21:22:57.909Z,14.97
2024-05-09T21:25:24.619Z,14.94
2024-05-09T21:27:51.438Z,14.91
2024-05-09T21:30:27.364Z,14.90
2024-05-09T21:33:00.009Z,14.72
2024-05-09T21:35:26.770Z,14.86
2024-05-09T21:37:53.428Z,14.71
2024-05-09T21:40:27.364Z,14.83
2024-05-09T21:43:01.213Z,14.74
2024-05-09T21:45:28.015Z,14.75
2024-05-09T21:47:54.866Z,14.71
2024-05-09T21:50:28.176Z,14.73
2024-05-09T21:52:59.292Z,14.70
2024-05-09T21:55:26.043Z,14.64
2024-05-09T21:57:52.739Z,14.67
2024-05-09T22:00:28.853Z,14.70
2024-05-09T22:03:02.359Z,14.68
2024-05-09T22:05:29.411Z,14.59
2024-05-09T22:07:56.649Z,14.59
2024-05-09T22:10:30.224Z,14.57
2024-05-09T22:13:00.352Z,14.56
2024-05-09T22:15:27.212Z,14.61
2024-05-09T22:17:54.945Z,14.49
2024-05-09T22:20:26.203Z,14.37
2024-05-09T22:23:00.810Z,14.32
2024-05-09T22:25:30.216Z,14.34
2024-05-09T22:27:57.383Z,14.23
2024-05-09T22:30:31.903Z,14.17
2024-05-09T22:33:03.242Z,14.17
2024-05-09T22:35:29.920Z,14.15
2024-05-09T22:37:56.476Z,14.15
2024-05-09T22:40:32.206Z,14.14
2024-05-09T22:43:06.105Z,14.04
2024-05-09T22:45:32.912Z,13.99
2024-05-09T22:47:59.829Z,14.01
2024-05-09T22:50:30.622Z,14.04
2024-05-09T22:52:59.321Z,13.94
2024-05-09T22:55:25.917Z,13.89
2024-05-09T22:57:52.608Z,13.87
2024-05-09T23:00:28.614Z,13.89
2024-05-09T23:02:57.871Z,13.93
2024-05-09T23:05:24.569Z,13.94
2024-05-09T23:07:51.273Z,13.74
2024-05-09T23:10:25.133Z,13.75
2024-05-09T23:12:58.682Z,13.84
2024-05-09T23:15:25.421Z,13.70
2024-05-09T23:17:52.240Z,13.65
2024-05-09T23:20:29.689Z,13.70
2024-05-09T23:23:03.390Z,13.63
2024-05-09T23:25:30.118Z,13.59
2024-05-09T23:27:56.930Z,13.64
2024-05-09T23:30:33.278Z,13.52
2024-05-09T23:33:05.160Z,13.56
2024-05-09T23:35:32.037Z,13.58
2024-05-09T23:37:58.614Z,13.58
2024-05-09T23:40:36.717Z,13.61
2024-05-09T23:43:06.722Z,13.64
2024-05-09T23:45:33.762Z,13.69
2024-05-09T23:48:01.079Z,13.71
2024-05-09T23:50:34.364Z,13.75
2024-05-09T23:53:04.410Z,13.76
2024-05-09T23:55:31.944Z,13.73
2024-05-09T23:57:58.889Z,13.66
